createdAt,value
2022-10-05T00:01:48.806Z,17.70
2022-10-05T00:04:21.696Z,17.70
2022-10-05T00:06:58.013Z,17.60
2022-10-05T00:09:24.744Z,17.60
2022-10-05T00:11:51.679Z,17.50
2022-10-05T00:14:29.894Z,17.40
2022-10-05T00:16:57.379Z,17.60
2022-10-05T00:19:33.172Z,17.60
2022-10-05T00:22:06.334Z,17.60
2022-10-05T00:24:33.081Z,18.90
2022-10-05T00:27:01.725Z,17.50
2022-10-05T00:29:28.634Z,17.70
2022-10-05T00:31:55.407Z,17.80
2022-10-05T00:34:22.199Z,17.60
2022-10-05T00:36:49.169Z,17.80
2022-10-05T00:39:18.300Z,17.70
2022-10-05T00:42:13.075Z,17.50
2022-10-05T00:44:48.857Z,17.50
2022-10-05T00:47:30.942Z,17.50
2022-10-05T00:50:15.353Z,17.80
2022-10-05T00:53:05.658Z,17.80
2022-10-05T00:55:53.339Z,17.50
2022-10-05T00:58:38.200Z,17.70
2022-10-05T01:01:17.742Z,17.40
2022-10-05T01:04:13.127Z,17.60
2022-10-05T01:07:12.288Z,17.70
2022-10-05T01:10:03.808Z,17.50
2022-10-05T01:12:37.236Z,17.60
2022-10-05T01:15:24.129Z,17.50
2022-10-05T01:18:06.028Z,17.50
2022-10-05T01:20:54.405Z,17.50
2022-10-05T01:23:41.924Z,17.50
2022-10-05T01:26:30.359Z,17.50
2022-10-05T01:29:11.611Z,17.60
2022-10-05T01:31:47.790Z,17.70
2022-10-05T01:34:20.321Z,17.70
2022-10-05T01:37:01.100Z,17.80
2022-10-05T01:39:47.866Z,17.70
2022-10-05T01:42:22.248Z,17.70
2022-10-05T01:44:55.806Z,17.90
2022-10-05T01:47:38.561Z,17.80
2022-10-05T01:50:21.411Z,17.80
2022-10-05T01:53:03.353Z,18.00
2022-10-05T01:55:40.499Z,17.70
2022-10-05T01:58:31.838Z,17.30
2022-10-05T02:01:38.416Z,18.00
2022-10-05T02:04:37.035Z,18.10
2022-10-05T02:07:10.546Z,18.30
2022-10-05T02:09:46.189Z,17.80
2022-10-05T02:12:19.498Z,17.70
2022-10-05T02:14:52.586Z,17.70
2022-10-05T02:17:37.322Z,17.70
2022-10-05T02:20:09.283Z,17.80
2022-10-05T02:22:45.028Z,17.80
2022-10-05T02:25:19.620Z,17.90
2022-10-05T02:28:25.179Z,17.80
2022-10-05T02:31:05.664Z,17.80
2022-10-05T02:33:34.277Z,17.70
2022-10-05T02:36:26.517Z,17.80
2022-10-05T02:39:15.268Z,17.70
2022-10-05T02:41:44.798Z,17.70
2022-10-05T02:44:38.620Z,17.60
2022-10-05T02:47:28.288Z,17.80
2022-10-05T02:50:27.605Z,17.70
2022-10-05T02:53:15.717Z,17.70
2022-10-05T02:55:45.374Z,17.70
2022-10-05T02:58:15.670Z,17.70
2022-10-05T03:01:15.246Z,17.70
2022-10-05T03:04:14.707Z,17.90
2022-10-05T03:07:16.145Z,18.70
2022-10-05T03:09:52.610Z,17.70
2022-10-05T03:12:39.493Z,17.70
2022-10-05T03:15:52.636Z,17.60
2022-10-05T03:18:57.502Z,17.60
2022-10-05T03:21:44.011Z,17.60
2022-10-05T03:24:19.767Z,17.60
2022-10-05T03:27:12.945Z,17.70
2022-10-05T03:30:06.515Z,17.80
2022-10-05T03:32:42.284Z,17.90
2022-10-05T03:35:20.115Z,18.00
2022-10-05T03:38:07.467Z,17.80
2022-10-05T03:40:44.774Z,17.90
2022-10-05T03:43:32.768Z,17.90
2022-10-05T03:46:08.523Z,17.90
2022-10-05T03:48:49.805Z,17.80
2022-10-05T03:51:23.875Z,17.90
2022-10-05T03:53:59.924Z,17.80
2022-10-05T03:56:47.050Z,17.90
2022-10-05T03:59:17.315Z,17.70
2022-10-05T04:01:48.646Z,17.70
2022-10-05T04:04:50.671Z,17.70
2022-10-05T04:07:54.798Z,17.80
2022-10-05T04:10:29.055Z,17.90
2022-10-05T04:13:11.962Z,18.00
2022-10-05T04:16:12.571Z,17.80
2022-10-05T04:18:50.667Z,17.80
2022-10-05T04:21:32.480Z,18.90
2022-10-05T04:24:25.935Z,17.80
2022-10-05T04:26:57.574Z,17.60
2022-10-05T04:29:43.238Z,17.70
2022-10-05T04:32:15.478Z,17.70
2022-10-05T04:35:00.677Z,17.50
2022-10-05T04:37:55.605Z,17.50
2022-10-05T04:40:25.371Z,17.60
2022-10-05T04:43:05.146Z,17.60
2022-10-05T04:46:08.794Z,17.50
2022-10-05T04:48:47.989Z,17.60
2022-10-05T04:51:30.582Z,17.50
2022-10-05T04:54:11.557Z,17.40
2022-10-05T04:57:09.732Z,17.40
2022-10-05T05:00:00.611Z,17.40
2022-10-05T05:02:47.396Z,17.50
2022-10-05T05:05:31.610Z,17.60
2022-10-05T05:08:19.498Z,17.50
2022-10-05T05:11:16.744Z,17.50
2022-10-05T05:14:09.173Z,17.40
2022-10-05T05:16:45.900Z,17.40
2022-10-05T05:19:41.432Z,17.50
2022-10-05T05:22:31.632Z,17.60
2022-10-05T05:25:35.373Z,18.80
2022-10-05T05:28:29.862Z,17.60
2022-10-05T05:31:02.852Z,17.50
2022-10-05T05:33:55.503Z,17.50
2022-10-05T05:36:36.957Z,17.40
2022-10-05T05:39:06.722Z,17.40
2022-10-05T05:41:58.373Z,17.30
2022-10-05T05:44:52.497Z,17.40
2022-10-05T05:47:20.118Z,17.30
2022-10-05T05:49:59.984Z,17.40
2022-10-05T05:52:45.220Z,17.30
2022-10-05T05:55:16.065Z,17.40
2022-10-05T05:57:58.541Z,17.50
2022-10-05T06:00:32.649Z,17.50
2022-10-05T06:03:15.648Z,17.60
2022-10-05T06:05:50.380Z,16.40
2022-10-05T06:08:47.959Z,17.60
2022-10-05T06:11:32.829Z,17.60
2022-10-05T06:14:05.337Z,17.70
2022-10-05T06:16:40.692Z,17.70
2022-10-05T06:19:21.272Z,17.60
2022-10-05T06:21:58.613Z,17.60
2022-10-05T06:24:36.823Z,17.60
2022-10-05T06:27:26.606Z,17.60
2022-10-05T06:30:07.360Z,17.60
2022-10-05T06:33:04.822Z,17.60
2022-10-05T06:36:11.935Z,17.60
2022-10-05T06:38:59.869Z,17.60
2022-10-05T06:42:05.041Z,17.70
2022-10-05T06:44:39.546Z,17.60
2022-10-05T06:47:37.178Z,17.80
2022-10-05T06:50:12.609Z,17.80
2022-10-05T06:53:07.096Z,17.60
2022-10-05T06:55:52.803Z,17.70
2022-10-05T06:58:47.676Z,17.50
2022-10-05T07:01:17.417Z,18.20
2022-10-05T07:04:13.991Z,17.40
2022-10-05T07:06:55.222Z,17.50
2022-10-05T07:09:44.024Z,17.60
2022-10-05T07:12:18.496Z,17.70
2022-10-05T07:14:48.188Z,17.90
2022-10-05T07:17:45.540Z,17.80
2022-10-05T07:20:38.507Z,17.60
2022-10-05T07:23:11.814Z,17.60
2022-10-05T07:25:54.189Z,17.60
2022-10-05T07:28:38.143Z,17.50
2022-10-05T07:31:30.933Z,16.60
2022-10-05T07:34:09.727Z,17.60
2022-10-05T07:37:09.725Z,16.60
2022-10-05T07:39:59.631Z,17.50
2022-10-05T07:43:00.787Z,17.50
2022-10-05T07:45:45.978Z,17.60
2022-10-05T07:48:21.443Z,17.60
2022-10-05T07:51:11.405Z,17.70
2022-10-05T07:53:41.787Z,17.70
2022-10-05T07:56:40.171Z,17.70
2022-10-05T07:59:16.708Z,18.60
2022-10-05T08:01:48.638Z,18.00
2022-10-05T08:04:27.998Z,18.10
2022-10-05T08:07:02.608Z,18.10
2022-10-05T08:09:42.162Z,18.00
2022-10-05T08:12:28.035Z,18.20
2022-10-05T08:15:04.648Z,18.20
2022-10-05T08:17:48.604Z,18.50
2022-10-05T08:20:36.967Z,18.70
2022-10-05T08:23:24.046Z,18.60
2022-10-05T08:26:02.666Z,18.40
2022-10-05T08:28:40.408Z,18.50
2022-10-05T08:31:25.521Z,18.40
2022-10-05T08:34:07.699Z,18.40
2022-10-05T08:36:53.565Z,18.40
2022-10-05T08:39:22.270Z,18.40
2022-10-05T08:42:20.657Z,18.60
2022-10-05T08:44:50.471Z,18.60
2022-10-05T08:47:45.810Z,18.50
2022-10-05T08:50:12.632Z,18.30
2022-10-05T08:53:26.883Z,18.30
2022-10-05T08:56:28.597Z,18.40
2022-10-05T08:59:04.844Z,18.40
2022-10-05T09:01:53.407Z,18.50
2022-10-05T09:04:34.804Z,18.50
2022-10-05T09:07:41.182Z,18.60
2022-10-05T09:10:35.933Z,18.70
2022-10-05T09:13:24.423Z,18.90
2022-10-05T09:16:20.592Z,18.70
2022-10-05T09:18:56.024Z,18.70
2022-10-05T09:21:42.941Z,18.80
2022-10-05T09:24:09.698Z,18.90
2022-10-05T09:27:03.615Z,18.90
2022-10-05T09:30:04.899Z,19.00
2022-10-05T09:32:32.068Z,19.20
2022-10-05T09:35:23.385Z,19.40
2022-10-05T09:38:12.227Z,19.50
2022-10-05T09:40:47.473Z,19.40
2022-10-05T09:43:26.191Z,19.60
2022-10-05T09:46:12.957Z,19.60
2022-10-05T09:49:11.581Z,19.70
2022-10-05T09:52:06.449Z,19.80
2022-10-05T09:55:18.180Z,19.90
2022-10-05T09:57:54.238Z,19.90
2022-10-05T10:01:34.765Z,19.80
2022-10-05T10:04:10.745Z,20.00
2022-10-05T10:07:34.800Z,20.10
2022-10-05T10:10:32.431Z,19.90
2022-10-05T10:13:29.954Z,19.80
2022-10-05T10:16:23.803Z,20.10
2022-10-05T10:18:56.606Z,20.20
2022-10-05T10:21:33.996Z,20.60
2022-10-05T10:24:00.818Z,20.30
2022-10-05T10:26:48.784Z,20.50
2022-10-05T10:29:21.750Z,20.50
2022-10-05T10:32:07.669Z,20.40
2022-10-05T10:34:43.804Z,20.30
2022-10-05T10:37:34.576Z,20.10
2022-10-05T10:40:21.358Z,20.00
2022-10-05T10:43:22.160Z,19.80
2022-10-05T10:46:17.262Z,19.90
2022-10-05T10:49:16.830Z,19.50
2022-10-05T10:52:12.992Z,19.20
2022-10-05T10:55:06.056Z,19.40
2022-10-05T10:57:38.677Z,19.60
2022-10-05T11:00:19.259Z,19.40
2022-10-05T11:03:35.762Z,19.30
2022-10-05T11:06:27.678Z,19.50
2022-10-05T11:08:57.377Z,19.60
2022-10-05T11:12:02.106Z,19.80
2022-10-05T11:14:47.620Z,19.70
2022-10-05T11:17:29.434Z,20.00
2022-10-05T11:20:22.767Z,19.60
2022-10-05T11:23:05.617Z,19.30
2022-10-05T11:25:44.297Z,19.60
2022-10-05T11:28:36.936Z,19.30
2022-10-05T11:31:03.765Z,19.40
2022-10-05T11:33:56.760Z,19.50
2022-10-05T11:36:51.651Z,19.30
2022-10-05T11:39:42.645Z,19.10
2022-10-05T11:42:47.336Z,18.70
2022-10-05T11:45:26.235Z,18.50
2022-10-05T11:48:20.813Z,18.60
2022-10-05T11:51:15.304Z,18.40
2022-10-05T11:53:57.519Z,18.30
2022-10-05T11:56:35.996Z,18.40
2022-10-05T11:59:21.066Z,18.30
2022-10-05T12:02:18.512Z,18.40
2022-10-05T12:04:48.228Z,18.40
2022-10-05T12:07:39.033Z,18.40
2022-10-05T12:10:17.653Z,18.20
2022-10-05T12:12:56.958Z,18.40
2022-10-05T12:15:56.637Z,18.20
2022-10-05T12:18:52.324Z,18.40
2022-10-05T12:21:22.839Z,18.40
2022-10-05T12:24:01.857Z,18.20
2022-10-05T12:26:35.636Z,18.20
2022-10-05T12:29:13.787Z,18.20
2022-10-05T12:31:54.494Z,18.10
2022-10-05T12:34:27.400Z,18.20
2022-10-05T12:37:09.255Z,18.30
2022-10-05T12:39:51.080Z,18.30
2022-10-05T12:42:41.877Z,18.20
2022-10-05T12:45:24.400Z,18.20
2022-10-05T12:48:06.701Z,18.20
2022-10-05T12:50:40.964Z,18.30
2022-10-05T12:53:16.833Z,18.30
2022-10-05T12:56:12.799Z,18.10
2022-10-05T12:59:10.863Z,18.10
2022-10-05T13:02:45.068Z,18.00
2022-10-05T13:05:18.449Z,18.00
2022-10-05T13:08:17.810Z,18.00
2022-10-05T13:10:46.891Z,18.10
2022-10-05T13:13:21.848Z,18.00
2022-10-05T13:16:23.910Z,17.80
2022-10-05T13:18:56.690Z,16.50
2022-10-05T13:21:48.362Z,15.60
2022-10-05T13:24:24.814Z,15.10
2022-10-05T13:26:58.319Z,14.70
2022-10-05T13:29:34.730Z,14.50
2022-10-05T13:32:12.600Z,14.40
2022-10-05T13:34:45.118Z,14.60
2022-10-05T13:37:24.080Z,14.60
2022-10-05T13:40:21.851Z,14.50
2022-10-05T13:43:40.066Z,14.70
2022-10-05T13:46:33.318Z,14.90
2022-10-05T13:49:04.999Z,14.80
2022-10-05T13:51:56.219Z,14.80
2022-10-05T13:54:28.942Z,15.10
2022-10-05T13:57:18.629Z,15.10
2022-10-05T13:59:58.350Z,15.00
2022-10-05T14:02:31.242Z,15.30
2022-10-05T14:05:01.201Z,15.50
2022-10-05T14:07:49.670Z,15.70
2022-10-05T14:10:40.815Z,15.70
2022-10-05T14:13:19.383Z,16.00
2022-10-05T14:16:06.956Z,15.90
2022-10-05T14:18:38.612Z,16.00
2022-10-05T14:21:08.568Z,16.00
2022-10-05T14:23:35.723Z,16.80
2022-10-05T14:26:04.445Z,16.40
2022-10-05T14:28:34.014Z,16.40
2022-10-05T14:31:16.217Z,16.30
2022-10-05T14:33:43.802Z,16.20
2022-10-05T14:36:35.776Z,16.40
2022-10-05T14:39:05.148Z,16.00
2022-10-05T14:41:37.655Z,16.30
2022-10-05T14:44:20.520Z,16.40
2022-10-05T14:46:56.691Z,16.40
2022-10-05T14:49:36.197Z,16.60
2022-10-05T14:52:32.733Z,16.30
2022-10-05T14:55:05.360Z,16.30
2022-10-05T14:57:44.991Z,16.30
2022-10-05T15:00:19.901Z,16.20
2022-10-05T15:02:58.615Z,16.10
2022-10-05T15:05:34.729Z,16.30
2022-10-05T15:08:20.463Z,16.60
2022-10-05T15:10:57.777Z,16.40
2022-10-05T15:13:31.305Z,16.40
2022-10-05T15:16:04.540Z,16.20
2022-10-05T15:18:43.883Z,16.10
2022-10-05T15:21:29.491Z,16.40
2022-10-05T15:24:00.793Z,16.70
2022-10-05T15:26:45.041Z,16.90
2022-10-05T15:29:27.533Z,17.00
2022-10-05T15:32:16.269Z,16.90
2022-10-05T15:35:01.678Z,17.00
2022-10-05T15:37:40.200Z,17.00
2022-10-05T15:40:36.436Z,17.00
2022-10-05T15:43:10.800Z,17.00
2022-10-05T15:45:52.972Z,17.30
2022-10-05T15:48:25.321Z,17.90
2022-10-05T15:51:03.693Z,18.20
2022-10-05T15:53:52.473Z,18.10
2022-10-05T15:56:26.750Z,18.00
2022-10-05T15:59:17.650Z,17.70
2022-10-05T16:01:51.836Z,18.30
2022-10-05T16:04:30.145Z,18.20
2022-10-05T16:07:22.907Z,18.00
2022-10-05T16:10:08.001Z,17.40
2022-10-05T16:13:09.422Z,17.00
2022-10-05T16:15:58.093Z,17.30
2022-10-05T16:18:36.894Z,17.30
2022-10-05T16:21:14.360Z,17.50
2022-10-05T16:24:00.215Z,17.30
2022-10-05T16:26:36.643Z,17.20
2022-10-05T16:29:19.075Z,17.00
2022-10-05T16:32:07.656Z,16.60
2022-10-05T16:34:58.642Z,16.80
2022-10-05T16:38:10.290Z,17.30
2022-10-05T16:41:02.002Z,17.40
2022-10-05T16:43:52.972Z,17.60
2022-10-05T16:46:39.361Z,18.10
2022-10-05T16:49:32.952Z,17.80
2022-10-05T16:52:00.640Z,18.00
2022-10-05T16:54:27.527Z,17.70
2022-10-05T16:57:17.783Z,17.00
2022-10-05T17:00:12.175Z,16.70
2022-10-05T17:02:54.982Z,16.70
2022-10-05T17:05:31.068Z,16.50
2022-10-05T17:08:09.954Z,16.50
2022-10-05T17:10:50.508Z,17.40
2022-10-05T17:13:48.165Z,16.20
2022-10-05T17:16:43.139Z,15.80
2022-10-05T17:19:49.742Z,15.70
2022-10-05T17:22:50.920Z,15.80
2022-10-05T17:25:43.157Z,15.70
2022-10-05T17:28:18.766Z,15.70
2022-10-05T17:31:06.867Z,15.70
2022-10-05T17:33:56.736Z,15.60
2022-10-05T17:36:40.050Z,15.50
2022-10-05T17:39:43.361Z,15.50
2022-10-05T17:42:42.183Z,15.40
2022-10-05T17:45:14.893Z,15.50
2022-10-05T17:48:01.811Z,15.40
2022-10-05T17:51:04.018Z,15.50
2022-10-05T17:54:09.115Z,15.40
2022-10-05T17:56:47.998Z,15.50
2022-10-05T17:59:40.451Z,14.90
2022-10-05T18:02:36.838Z,14.20
2022-10-05T18:05:07.105Z,13.80
2022-10-05T18:07:39.619Z,13.50
2022-10-05T18:10:12.162Z,13.10
2022-10-05T18:12:59.483Z,13.00
2022-10-05T18:15:26.785Z,13.00
2022-10-05T18:17:57.460Z,12.90
2022-10-05T18:20:24.875Z,12.90
2022-10-05T18:22:58.737Z,12.70
2022-10-05T18:25:45.549Z,12.60
2022-10-05T18:28:43.077Z,12.30
2022-10-05T18:31:39.168Z,12.50
2022-10-05T18:34:26.397Z,12.50
2022-10-05T18:37:12.293Z,12.50
2022-10-05T18:39:54.714Z,12.80
2022-10-05T18:42:40.813Z,12.70
2022-10-05T18:45:21.902Z,12.80
2022-10-05T18:47:53.692Z,12.90
2022-10-05T18:50:47.453Z,13.00
2022-10-05T18:54:08.310Z,12.90
2022-10-05T18:56:38.100Z,12.90
2022-10-05T18:59:18.935Z,12.90
2022-10-05T19:02:13.042Z,13.10
2022-10-05T19:05:42.539Z,13.20
2022-10-05T19:08:33.713Z,13.10
2022-10-05T19:11:26.593Z,13.00
2022-10-05T19:14:25.899Z,13.10
2022-10-05T19:17:13.186Z,13.00
2022-10-05T19:20:18.269Z,13.10
2022-10-05T19:23:18.390Z,13.00
2022-10-05T19:26:30.295Z,13.10
2022-10-05T19:29:28.014Z,12.90
2022-10-05T19:32:04.028Z,13.00
2022-10-05T19:34:49.298Z,12.90
2022-10-05T19:37:42.327Z,13.00
2022-10-05T19:40:39.062Z,13.00
2022-10-05T19:43:40.391Z,12.80
2022-10-05T19:46:19.855Z,12.90
2022-10-05T19:48:49.846Z,12.80
2022-10-05T19:51:30.527Z,12.90
2022-10-05T19:54:21.199Z,12.90
2022-10-05T19:56:51.023Z,12.90
2022-10-05T19:59:21.938Z,13.10
2022-10-05T20:02:20.335Z,12.80
2022-10-05T20:04:49.488Z,12.80
2022-10-05T20:07:22.082Z,12.90
2022-10-05T20:10:00.040Z,12.80
2022-10-05T20:12:54.383Z,12.60
2022-10-05T20:15:42.556Z,12.60
2022-10-05T20:18:50.877Z,12.80
2022-10-05T20:21:37.183Z,12.80
2022-10-05T20:24:25.668Z,12.80
2022-10-05T20:27:06.881Z,12.80
2022-10-05T20:29:37.891Z,12.90
2022-10-05T20:32:14.444Z,12.90
2022-10-05T20:34:43.674Z,12.70
2022-10-05T20:37:16.530Z,12.80
2022-10-05T20:39:43.802Z,12.90
2022-10-05T20:42:13.879Z,12.80
2022-10-05T20:44:41.085Z,12.70
2022-10-05T20:47:09.887Z,12.90
2022-10-05T20:49:38.384Z,12.70
2022-10-05T20:52:08.908Z,12.70
2022-10-05T20:54:37.424Z,12.70
2022-10-05T20:57:09.848Z,12.70
2022-10-05T20:59:37.273Z,12.80
2022-10-05T21:02:05.441Z,12.70
2022-10-05T21:04:40.934Z,12.50
2022-10-05T21:07:08.306Z,12.60
2022-10-05T21:09:37.971Z,12.50
2022-10-05T21:12:04.914Z,12.40
2022-10-05T21:14:34.429Z,12.60
2022-10-05T21:17:02.107Z,12.50
2022-10-05T21:19:29.619Z,12.50
2022-10-05T21:21:59.192Z,12.50
2022-10-05T21:24:26.326Z,12.50
2022-10-05T21:26:56.791Z,12.30
2022-10-05T21:29:23.624Z,12.30
2022-10-05T21:31:50.551Z,12.10
2022-10-05T21:34:17.380Z,12.20
2022-10-05T21:36:44.141Z,12.30
2022-10-05T21:39:10.863Z,12.10
2022-10-05T21:41:37.820Z,12.30
2022-10-05T21:44:06.305Z,12.20
2022-10-05T21:46:36.268Z,12.30
2022-10-05T21:49:03.303Z,12.20
2022-10-05T21:51:30.102Z,12.20
2022-10-05T21:54:19.489Z,12.30
2022-10-05T21:56:50.370Z,11.70
2022-10-05T21:59:20.335Z,12.20
2022-10-05T22:01:47.239Z,12.30
2022-10-05T22:04:15.097Z,12.20
2022-10-05T22:06:42.291Z,12.10
2022-10-05T22:09:09.234Z,12.00
2022-10-05T22:11:36.069Z,12.00
2022-10-05T22:14:02.986Z,12.00
2022-10-05T22:16:32.905Z,12.00
2022-10-05T22:19:04.142Z,11.80
2022-10-05T22:21:32.860Z,12.10
2022-10-05T22:24:04.722Z,12.00
2022-10-05T22:26:31.719Z,11.90
2022-10-05T22:28:58.685Z,11.60
2022-10-05T22:31:25.580Z,11.80
2022-10-05T22:33:54.860Z,11.70
2022-10-05T22:36:22.183Z,11.90
2022-10-05T22:38:49.071Z,11.90
2022-10-05T22:41:18.457Z,11.90
2022-10-05T22:43:50.003Z,11.80
2022-10-05T22:46:17.207Z,11.80
2022-10-05T22:48:44.242Z,11.70
2022-10-05T22:51:11.047Z,11.80
2022-10-05T22:53:38.190Z,11.70
2022-10-05T22:56:10.716Z,11.70
2022-10-05T22:58:40.311Z,11.80
2022-10-05T23:01:12.919Z,11.60
2022-10-05T23:03:40.818Z,11.60
2022-10-05T23:06:14.237Z,11.60
2022-10-05T23:08:41.995Z,11.50
2022-10-05T23:11:14.823Z,11.70
2022-10-05T23:13:43.076Z,11.70
2022-10-05T23:16:14.192Z,11.60
2022-10-05T23:18:41.775Z,11.60
2022-10-05T23:21:10.068Z,11.60
2022-10-05T23:23:39.800Z,11.60
2022-10-05T23:26:09.328Z,11.60
2022-10-05T23:28:36.391Z,11.60
2022-10-05T23:31:06.671Z,11.60
2022-10-05T23:33:35.021Z,11.70
2022-10-05T23:36:05.527Z,11.70
2022-10-05T23:38:32.614Z,11.70
2022-10-05T23:40:59.897Z,11.70
2022-10-05T23:43:27.390Z,11.80
2022-10-05T23:45:54.424Z,11.80
2022-10-05T23:48:21.571Z,11.70
2022-10-05T23:50:50.497Z,11.70
2022-10-05T23:53:18.392Z,11.60
2022-10-05T23:55:45.301Z,11.60
2022-10-05T23:58:12.387Z,11.50
